sensor_id;sensor_type;location;lat;lon;timestamp;pressure;altitude;pressure_sealevel;temperature;humidity
43878;BME280;29815;48.184;11.268;2022-08-19T00:00:28;95110.34;;;17.09;100.00
43878;BME280;29815;48.184;11.268;2022-08-19T00:02:58;95113.84;;;17.09;100.00
43878;BME280;29815;48.184;11.268;2022-08-19T00:05:27;95125.53;;;17.10;100.00
43878;BME280;29815;48.184;11.268;2022-08-19T00:07:57;95120.41;;;17.08;100.00
43878;BME280;29815;48.184;11.268;2022-08-19T00:10:28;95115.94;;;17.12;100.00
43878;BME280;29815;48.184;11.268;2022-08-19T00:12:57;95111.44;;;17.08;100.00
43878;BME280;29815;48.184;11.268;2022-08-19T00:15:27;95107.47;;;17.14;100.00
43878;BME280;29815;48.184;11.268;2022-08-19T00:17:57;95120.88;;;17.19;100.00
43878;BME280;29815;48.184;11.268;2022-08-19T00:20:26;95119.78;;;17.20;100.00
43878;BME280;29815;48.184;11.268;2022-08-19T00:22:56;95113.50;;;17.28;100.00
43878;BME280;29815;48.184;11.268;2022-08-19T00:25:27;95117.19;;;17.23;100.00
43878;BME280;29815;48.184;11.268;2022-08-19T00:27:58;95110.66;;;17.16;100.00
43878;BME280;29815;48.184;11.268;2022-08-19T00:30:28;95107.94;;;17.16;100.00
43878;BME280;29815;48.184;11.268;2022-08-19T00:32:58;95102.19;;;17.17;100.00
43878;BME280;29815;48.184;11.268;2022-08-19T00:35:28;95094.03;;;17.17;100.00
43878;BME280;29815;48.184;11.268;2022-08-19T00:37:57;95094.50;;;17.19;100.00
43878;BME280;29815;48.184;11.268;2022-08-19T00:40:28;95087.47;;;17.18;100.00
43878;BME280;29815;48.184;11.268;2022-08-19T00:42:58;95083.31;;;17.12;100.00
43878;BME280;29815;48.184;11.268;2022-08-19T00:45:29;95073.22;;;17.13;100.00
43878;BME280;29815;48.184;11.268;2022-08-19T00:48:04;95081.22;;;17.18;100.00
43878;BME280;29815;48.184;11.268;2022-08-19T00:50:43;95083.94;;;17.18;100.00
43878;BME280;29815;48.184;11.268;2022-08-19T00:53:23;95077.06;;;17.20;100.00
43878;BME280;29815;48.184;11.268;2022-08-19T00:55:58;95075.47;;;17.19;100.00
43878;BME280;29815;48.184;11.268;2022-08-19T00:58:34;95064.09;;;17.17;100.00
43878;BME280;29815;48.184;11.268;2022-08-19T01:01:04;95071.75;;;17.24;100.00
43878;BME280;29815;48.184;11.268;2022-08-19T01:03:35;95082.63;;;17.24;100.00
43878;BME280;29815;48.184;11.268;2022-08-19T01:06:25;95085.34;;;17.24;100.00
43878;BME280;29815;48.184;11.268;2022-08-19T01:08:55;95100.41;;;17.21;100.00
43878;BME280;29815;48.184;11.268;2022-08-19T01:11:27;95097.50;;;17.26;100.00
43878;BME280;29815;48.184;11.268;2022-08-19T01:13:57;95090.47;;;17.25;100.00
43878;BME280;29815;48.184;11.268;2022-08-19T01:16:28;95077.34;;;17.27;100.00
43878;BME280;29815;48.184;11.268;2022-08-19T01:18:59;95071.59;;;17.29;100.00
43878;BME280;29815;48.184;11.268;2022-08-19T01:21:34;95068.53;;;17.31;100.00
43878;BME280;29815;48.184;11.268;2022-08-19T01:24:08;95073.66;;;17.32;100.00
43878;BME280;29815;48.184;11.268;2022-08-19T01:26:40;95073.50;;;17.29;100.00
43878;BME280;29815;48.184;11.268;2022-08-19T01:29:13;95092.88;;;17.27;100.00
43878;BME280;29815;48.184;11.268;2022-08-19T01:31:43;95114.31;;;17.29;100.00
43878;BME280;29815;48.184;11.268;2022-08-19T01:34:13;95097.97;;;17.29;100.00
43878;BME280;29815;48.184;11.268;2022-08-19T01:36:46;95088.22;;;17.27;100.00
43878;BME280;29815;48.184;11.268;2022-08-19T01:39:22;95089.22;;;17.23;100.00
43878;BME280;29815;48.184;11.268;2022-08-19T01:41:52;95086.03;;;17.21;100.00
43878;BME280;29815;48.184;11.268;2022-08-19T01:44:23;95094.50;;;17.19;100.00
43878;BME280;29815;48.184;11.268;2022-08-19T01:46:52;95098.81;;;17.20;100.00
43878;BME280;29815;48.184;11.268;2022-08-19T01:49:25;95106.50;;;17.18;100.00
43878;BME280;29815;48.184;11.268;2022-08-19T01:51:55;95112.22;;;17.25;100.00
43878;BME280;29815;48.184;11.268;2022-08-19T01:54:28;95117.06;;;17.20;100.00
43878;BME280;29815;48.184;11.268;2022-08-19T01:57:04;95125.81;;;17.25;100.00
43878;BME280;29815;48.184;11.268;2022-08-19T01:59:35;95121.38;;;17.21;100.00
43878;BME280;29815;48.184;11.268;2022-08-19T02:02:05;95125.34;;;17.23;100.00
43878;BME280;29815;48.184;11.268;2022-08-19T02:04:37;95112.53;;;17.24;100.00
43878;BME280;29815;48.184;11.268;2022-08-19T02:07:07;95097.69;;;17.21;100.00
43878;BME280;29815;48.184;11.268;2022-08-19T02:09:38;95092.56;;;17.20;100.00
43878;BME280;29815;48.184;11.268;2022-08-19T02:12:08;95083.94;;;17.18;100.00
43878;BME280;29815;48.184;11.268;2022-08-19T02:14:37;95083.63;;;17.19;100.00
43878;BME280;29815;48.184;11.268;2022-08-19T02:17:07;95092.09;;;17.18;100.00
43878;BME280;29815;48.184;11.268;2022-08-19T02:19:37;95104.75;;;17.14;100.00
43878;BME280;29815;48.184;11.268;2022-08-19T02:22:09;95102.50;;;17.16;100.00
43878;BME280;29815;48.184;11.268;2022-08-19T02:24:40;95090.97;;;17.19;100.00
43878;BME280;29815;48.184;11.268;2022-08-19T02:27:09;95105.53;;;17.14;100.00
43878;BME280;29815;48.184;11.268;2022-08-19T02:29:39;95104.91;;;17.17;100.00
43878;BME280;29815;48.184;11.268;2022-08-19T02:32:08;95115.44;;;17.19;100.00
43878;BME280;29815;48.184;11.268;2022-08-19T02:34:38;95111.09;;;17.26;100.00
43878;BME280;29815;48.184;11.268;2022-08-19T02:37:08;95105.84;;;17.21;100.00
43878;BME280;29815;48.184;11.268;2022-08-19T02:40:04;95107.44;;;17.22;100.00
43878;BME280;29815;48.184;11.268;2022-08-19T02:42:39;95111.47;;;17.16;100.00
43878;BME280;29815;48.184;11.268;2022-08-19T02:45:11;95104.09;;;17.17;100.00
43878;BME280;29815;48.184;11.268;2022-08-19T02:47:41;95087.47;;;17.18;100.00
43878;BME280;29815;48.184;11.268;2022-08-19T02:50:11;95086.03;;;17.21;100.00
43878;BME280;29815;48.184;11.268;2022-08-19T02:52:41;95081.38;;;17.21;100.00
43878;BME280;29815;48.184;11.268;2022-08-19T02:55:12;95082.81;;;17.19;100.00
43878;BME280;29815;48.184;11.268;2022-08-19T02:57:41;95066.03;;;17.17;100.00
43878;BME280;29815;48.184;11.268;2022-08-19T03:00:12;95056.28;;;17.16;100.00
43878;BME280;29815;48.184;11.268;2022-08-19T03:02:42;95042.84;;;17.11;100.00
43878;BME280;29815;48.184;11.268;2022-08-19T03:05:11;95044.13;;;17.13;100.00
43878;BME280;29815;48.184;11.268;2022-08-19T03:07:41;95049.88;;;17.12;100.00
43878;BME280;29815;48.184;11.268;2022-08-19T03:10:12;95049.22;;;17.15;100.00
43878;BME280;29815;48.184;11.268;2022-08-19T03:12:42;95040.28;;;17.14;100.00
43878;BME280;29815;48.184;11.268;2022-08-19T03:15:13;95043.47;;;17.16;100.00
43878;BME280;29815;48.184;11.268;2022-08-19T03:17:43;95047.97;;;17.12;100.00
43878;BME280;29815;48.184;11.268;2022-08-19T03:20:13;95051.47;;;17.13;100.00
43878;BME280;29815;48.184;11.268;2022-08-19T03:22:42;95054.19;;;17.13;100.00
43878;BME280;29815;48.184;11.268;2022-08-19T03:25:13;95065.72;;;17.18;100.00
43878;BME280;29815;48.184;11.268;2022-08-19T03:27:43;95081.19;;;17.26;100.00
43878;BME280;29815;48.184;11.268;2022-08-19T03:30:17;95097.38;;;17.23;100.00
43878;BME280;29815;48.184;11.268;2022-08-19T03:32:50;95104.25;;;17.20;100.00
43878;BME280;29815;48.184;11.268;2022-08-19T03:35:24;95111.94;;;17.18;100.00
43878;BME280;29815;48.184;11.268;2022-08-19T03:37:54;95103.28;;;17.16;100.00
43878;BME280;29815;48.184;11.268;2022-08-19T03:40:25;95102.19;;;17.17;100.00
43878;BME280;29815;48.184;11.268;2022-08-19T03:42:57;95102.97;;;17.18;100.00
43878;BME280;29815;48.184;11.268;2022-08-19T03:45:27;95100.09;;;17.14;100.00
43878;BME280;29815;48.184;11.268;2022-08-19T03:47:57;95088.09;;;17.15;100.00
43878;BME280;29815;48.184;11.268;2022-08-19T03:50:27;95074.03;;;17.13;100.00
43878;BME280;29815;48.184;11.268;2022-08-19T03:52:56;95068.44;;;17.10;100.00
43878;BME280;29815;48.184;11.268;2022-08-19T03:55:27;95060.59;;;17.08;100.00
43878;BME280;29815;48.184;11.268;2022-08-19T03:57:57;95071.16;;;17.10;100.00
43878;BME280;29815;48.184;11.268;2022-08-19T04:00:27;95063.97;;;17.05;100.00
43878;BME280;29815;48.184;11.268;2022-08-19T04:02:56;95075.16;;;17.04;100.00
43878;BME280;29815;48.184;11.268;2022-08-19T04:05:28;95082.50;;;17.03;100.00
43878;BME280;29815;48.184;11.268;2022-08-19T04:07:58;95083.63;;;17.02;100.00
43878;BME280;29815;48.184;11.268;2022-08-19T04:10:29;95084.91;;;17.05;100.00
43878;BME280;29815;48.184;11.268;2022-08-19T04:12:59;95085.38;;;17.07;100.00
43878;BME280;29815;48.184;11.268;2022-08-19T04:15:29;95073.06;;;17.09;100.00
43878;BME280;29815;48.184;11.268;2022-08-19T04:18:01;95080.09;;;17.10;100.00
43878;BME280;29815;48.184;11.268;2022-08-19T04:20:42;95091.78;;;17.11;100.00
43878;BME280;29815;48.184;11.268;2022-08-19T04:23:14;95077.38;;;17.10;100.00
43878;BME280;29815;48.184;11.268;2022-08-19T04:25:45;95082.50;;;17.12;100.00
43878;BME280;29815;48.184;11.268;2022-08-19T04:28:14;95074.03;;;17.13;100.00
43878;BME280;29815;48.184;11.268;2022-08-19T04:30:48;95079.94;;;17.15;100.00
43878;BME280;29815;48.184;11.268;2022-08-19T04:33:23;95082.34;;;17.17;100.00
43878;BME280;29815;48.184;11.268;2022-08-19T04:35:55;95091.63;;;17.16;100.00
43878;BME280;29815;48.184;11.268;2022-08-19T04:38:26;95096.09;;;17.20;100.00
43878;BME280;29815;48.184;11.268;2022-08-19T04:40:57;95108.91;;;17.20;100.00
43878;BME280;29815;48.184;11.268;2022-08-19T04:43:45;95106.78;;;17.25;100.00
43878;BME280;29815;48.184;11.268;2022-08-19T04:46:16;95105.53;;;17.23;100.00
43878;BME280;29815;48.184;11.268;2022-08-19T04:49:07;95110.19;;;17.22;100.00
43878;BME280;29815;48.184;11.268;2022-08-19T04:51:42;95111.09;;;17.26;100.00
43878;BME280;29815;48.184;11.268;2022-08-19T04:54:16;95107.91;;;17.24;100.00
43878;BME280;29815;48.184;11.268;2022-08-19T04:57:08;95112.91;;;17.22;100.00
43878;BME280;29815;48.184;11.268;2022-08-19T04:59:38;95119.44;;;17.21;100.00
43878;BME280;29815;48.184;11.268;2022-08-19T05:02:09;95118.97;;;17.19;100.00
43878;BME280;29815;48.184;11.268;2022-08-19T05:04:38;95130.31;;;17.21;100.00
43878;BME280;29815;48.184;11.268;2022-08-19T05:07:08;95125.22;;;17.20;100.00
43878;BME280;29815;48.184;11.268;2022-08-19T05:09:38;95126.34;;;17.19;100.00
43878;BME280;29815;48.184;11.268;2022-08-19T05:12:27;95147.91;;;17.24;100.00
43878;BME280;29815;48.184;11.268;2022-08-19T05:14:59;95150.16;;;17.22;100.00
43878;BME280;29815;48.184;11.268;2022-08-19T05:17:28;95151.78;;;17.23;100.00
43878;BME280;29815;48.184;11.268;2022-08-19T05:20:09;95149.06;;;17.23;100.00
43878;BME280;29815;48.184;11.268;2022-08-19T05:22:56;95145.66;;;17.26;100.00
43878;BME280;29815;48.184;11.268;2022-08-19T05:25:26;95143.75;;;17.26;100.00
43878;BME280;29815;48.184;11.268;2022-08-19T05:27:57;95150.28;;;17.25;100.00
43878;BME280;29815;48.184;11.268;2022-08-19T05:30:26;95151.25;;;17.30;100.00
43878;BME280;29815;48.184;11.268;2022-08-19T05:33:14;95142.31;;;17.29;100.00
43878;BME280;29815;48.184;11.268;2022-08-19T05:35:44;95141.66;;;17.32;100.00
43878;BME280;29815;48.184;11.268;2022-08-19T05:38:14;95133.19;;;17.34;100.00
43878;BME280;29815;48.184;11.268;2022-08-19T05:40:43;95125.16;;;17.37;100.00
43878;BME280;29815;48.184;11.268;2022-08-19T05:43:18;95112.84;;;17.40;100.00
43878;BME280;29815;48.184;11.268;2022-08-19T05:45:48;95114.94;;;17.43;100.00
43878;BME280;29815;48.184;11.268;2022-08-19T05:48:18;95112.84;;;17.48;100.00
43878;BME280;29815;48.184;11.268;2022-08-19T05:50:48;95110.41;;;17.55;100.00
43878;BME280;29815;48.184;11.268;2022-08-19T05:53:19;95105.91;;;17.59;100.00
43878;BME280;29815;48.184;11.268;2022-08-19T05:55:48;95108.78;;;17.63;100.00
43878;BME280;29815;48.184;11.268;2022-08-19T05:58:19;95115.03;;;17.64;100.00
43878;BME280;29815;48.184;11.268;2022-08-19T06:00:55;95112.00;;;17.65;100.00
43878;BME280;29815;48.184;11.268;2022-08-19T06:03:24;95100.16;;;17.61;100.00
43878;BME280;29815;48.184;11.268;2022-08-19T06:05:55;95107.19;;;17.62;100.00
43878;BME280;29815;48.184;11.268;2022-08-19T06:08:27;95113.44;;;17.63;100.00
43878;BME280;29815;48.184;11.268;2022-08-19T06:11:19;95116.66;;;17.65;100.00
43878;BME280;29815;48.184;11.268;2022-08-19T06:13:53;95123.69;;;17.66;100.00
43878;BME280;29815;48.184;11.268;2022-08-19T06:16:28;95118.25;;;17.66;100.00
43878;BME280;29815;48.184;11.268;2022-08-19T06:19:06;95129.13;;;17.66;100.00
43878;BME280;29815;48.184;11.268;2022-08-19T06:21:40;95138.09;;;17.66;100.00
43878;BME280;29815;48.184;11.268;2022-08-19T06:24:14;95138.44;;;17.65;100.00
43878;BME280;29815;48.184;11.268;2022-08-19T06:26:48;95144.16;;;17.63;100.00
43878;BME280;29815;48.184;11.268;2022-08-19T06:29:24;95155.03;;;17.63;100.00
43878;BME280;29815;48.184;11.268;2022-08-19T06:31:56;95156.97;;;17.63;100.00
43878;BME280;29815;48.184;11.268;2022-08-19T06:34:28;95152.97;;;17.60;100.00
43878;BME280;29815;48.184;11.268;2022-08-19T06:37:01;95164.66;;;17.60;100.00
43878;BME280;29815;48.184;11.268;2022-08-19T06:39:36;95158.41;;;17.60;100.00
43878;BME280;29815;48.184;11.268;2022-08-19T06:42:08;95156.16;;;17.62;100.00
43878;BME280;29815;48.184;11.268;2022-08-19T06:44:43;95158.88;;;17.62;100.00
43878;BME280;29815;48.184;11.268;2022-08-19T06:47:19;95152.31;;;17.63;100.00
43878;BME280;29815;48.184;11.268;2022-08-19T06:49:53;95156.34;;;17.66;100.00
43878;BME280;29815;48.184;11.268;2022-08-19T06:52:32;95157.78;;;17.63;100.00
43878;BME280;29815;48.184;11.268;2022-08-19T06:55:13;95150.91;;;17.66;100.00
43878;BME280;29815;48.184;11.268;2022-08-19T06:57:45;95145.75;;;17.64;100.00
43878;BME280;29815;48.184;11.268;2022-08-19T07:00:17;95145.47;;;17.66;100.00
43878;BME280;29815;48.184;11.268;2022-08-19T07:02:47;95132.81;;;17.70;100.00
43878;BME280;29815;48.184;11.268;2022-08-19T07:05:26;95134.75;;;17.69;100.00
43878;BME280;29815;48.184;11.268;2022-08-19T07:07:56;95136.00;;;17.72;100.00
43878;BME280;29815;48.184;11.268;2022-08-19T07:10:31;95129.13;;;17.74;100.00
43878;BME280;29815;48.184;11.268;2022-08-19T07:13:03;95140.81;;;17.75;100.00
43878;BME280;29815;48.184;11.268;2022-08-19T07:15:36;95129.41;;;17.81;100.00
43878;BME280;29815;48.184;11.268;2022-08-19T07:18:07;95127.16;;;17.83;100.00
43878;BME280;29815;48.184;11.268;2022-08-19T07:20:39;95125.06;;;17.89;100.00
43878;BME280;29815;48.184;11.268;2022-08-19T07:23:11;95122.16;;;17.94;100.00
43878;BME280;29815;48.184;11.268;2022-08-19T07:25:43;95123.59;;;18.00;100.00
43878;BME280;29815;48.184;11.268;2022-08-19T07:28:20;95119.19;;;18.08;100.00
43878;BME280;29815;48.184;11.268;2022-08-19T07:30:53;95110.66;;;18.18;100.00
43878;BME280;29815;48.184;11.268;2022-08-19T07:33:23;95113.34;;;18.26;100.00
43878;BME280;29815;48.184;11.268;2022-08-19T07:35:55;95104.66;;;18.33;100.00
43878;BME280;29815;48.184;11.268;2022-08-19T07:38:24;95099.00;;;18.38;100.00
43878;BME280;29815;48.184;11.268;2022-08-19T07:40:54;95099.16;;;18.42;100.00
43878;BME280;29815;48.184;11.268;2022-08-19T07:43:24;95095.63;;;18.41;100.00
43878;BME280;29815;48.184;11.268;2022-08-19T07:46:03;95099.47;;;18.40;100.00
43878;BME280;29815;48.184;11.268;2022-08-19T07:48:33;95108.13;;;18.42;100.00
43878;BME280;29815;48.184;11.268;2022-08-19T07:51:05;95111.50;;;18.39;100.00
43878;BME280;29815;48.184;11.268;2022-08-19T07:53:42;95106.19;;;18.43;100.00
43878;BME280;29815;48.184;11.268;2022-08-19T07:56:13;95101.88;;;18.42;100.00
43878;BME280;29815;48.184;11.268;2022-08-19T07:58:46;95112.44;;;18.43;100.00
43878;BME280;29815;48.184;11.268;2022-08-19T08:01:22;95114.50;;;18.46;100.00
43878;BME280;29815;48.184;11.268;2022-08-19T08:03:54;95114.19;;;18.48;100.00
43878;BME280;29815;48.184;11.268;2022-08-19T08:06:43;95113.84;;;18.49;100.00
43878;BME280;29815;48.184;11.268;2022-08-19T08:09:35;95112.06;;;18.53;100.00
43878;BME280;29815;48.184;11.268;2022-08-19T08:12:11;95114.00;;;18.53;100.00
43878;BME280;29815;48.184;11.268;2022-08-19T08:15:08;95118.78;;;18.56;100.00
43878;BME280;29815;48.184;11.268;2022-08-19T08:17:42;95114.94;;;18.57;100.00
43878;BME280;29815;48.184;11.268;2022-08-19T08:20:18;95118.78;;;18.56;100.00
43878;BME280;29815;48.184;11.268;2022-08-19T08:22:48;95121.03;;;18.54;100.00
43878;BME280;29815;48.184;11.268;2022-08-19T08:25:36;95124.09;;;18.52;100.00
43878;BME280;29815;48.184;11.268;2022-08-19T08:28:06;95127.16;;;18.51;100.00
43878;BME280;29815;48.184;11.268;2022-08-19T08:30:44;95129.88;;;18.51;100.00
43878;BME280;29815;48.184;11.268;2022-08-19T08:33:20;95134.38;;;18.47;100.00
43878;BME280;29815;48.184;11.268;2022-08-19T08:36:02;95130.72;;;18.43;100.00
43878;BME280;29815;48.184;11.268;2022-08-19T08:38:33;95131.38;;;18.40;100.00
43878;BME280;29815;48.184;11.268;2022-08-19T08:41:17;95132.34;;;18.35;100.00
43878;BME280;29815;48.184;11.268;2022-08-19T08:43:54;95138.13;;;18.34;100.00
43878;BME280;29815;48.184;11.268;2022-08-19T08:46:31;95131.09;;;18.33;100.00
43878;BME280;29815;48.184;11.268;2022-08-19T08:49:31;95155.50;;;18.29;100.00
43878;BME280;29815;48.184;11.268;2022-08-19T08:52:07;95154.69;;;18.29;100.00
43878;BME280;29815;48.184;11.268;2022-08-19T08:54:44;95151.34;;;18.23;100.00
43878;BME280;29815;48.184;11.268;2022-08-19T08:57:27;95150.22;;;18.24;100.00
43878;BME280;29815;48.184;11.268;2022-08-19T09:00:17;95164.03;;;18.19;100.00
43878;BME280;29815;48.184;11.268;2022-08-19T09:02:49;95164.19;;;18.14;100.00
43878;BME280;29815;48.184;11.268;2022-08-19T09:05:21;95170.16;;;18.07;100.00
43878;BME280;29815;48.184;11.268;2022-08-19T09:08:00;95172.28;;;18.02;100.00
43878;BME280;29815;48.184;11.268;2022-08-19T09:10:37;95171.00;;;17.99;100.00
43878;BME280;29815;48.184;11.268;2022-08-19T09:13:24;95168.59;;;17.98;100.00
43878;BME280;29815;48.184;11.268;2022-08-19T09:16:07;95169.41;;;17.98;100.00
43878;BME280;29815;48.184;11.268;2022-08-19T09:18:43;95170.84;;;17.96;100.00
43878;BME280;29815;48.184;11.268;2022-08-19T09:21:16;95170.84;;;17.96;100.00
43878;BME280;29815;48.184;11.268;2022-08-19T09:23:49;95164.13;;;17.93;100.00
43878;BME280;29815;48.184;11.268;2022-08-19T09:26:22;95168.44;;;17.94;100.00
43878;BME280;29815;48.184;11.268;2022-08-19T09:29:12;95168.28;;;17.90;100.00
43878;BME280;29815;48.184;11.268;2022-08-19T09:31:44;95175.19;;;17.88;100.00
43878;BME280;29815;48.184;11.268;2022-08-19T09:34:14;95171.66;;;17.87;100.00
43878;BME280;29815;48.184;11.268;2022-08-19T09:36:50;95169.59;;;17.84;100.00
43878;BME280;29815;48.184;11.268;2022-08-19T09:39:21;95168.63;;;17.89;100.00
43878;BME280;29815;48.184;11.268;2022-08-19T09:41:51;95178.88;;;17.83;100.00
43878;BME280;29815;48.184;11.268;2022-08-19T09:44:25;95168.31;;;17.82;100.00
43878;BME280;29815;48.184;11.268;2022-08-19T09:46:54;95174.88;;;17.81;100.00
43878;BME280;29815;48.184;11.268;2022-08-19T09:49:24;95173.94;;;17.77;100.00
43878;BME280;29815;48.184;11.268;2022-08-19T09:51:55;95176.00;;;17.80;100.00
43878;BME280;29815;48.184;11.268;2022-08-19T09:54:25;95181.91;;;17.82;100.00
43878;BME280;29815;48.184;11.268;2022-08-19T09:56:57;95182.56;;;17.87;100.00
43878;BME280;29815;48.184;11.268;2022-08-19T09:59:31;95183.34;;;17.88;100.00
43878;BME280;29815;48.184;11.268;2022-08-19T10:02:02;95182.06;;;17.85;100.00
43878;BME280;29815;48.184;11.268;2022-08-19T10:04:38;95182.72;;;17.82;100.00
43878;BME280;29815;48.184;11.268;2022-08-19T10:07:26;95181.13;;;17.81;100.00
43878;BME280;29815;48.184;11.268;2022-08-19T10:10:06;95168.47;;;17.85;100.00
43878;BME280;29815;48.184;11.268;2022-08-19T10:12:37;95174.69;;;17.95;100.00
43878;BME280;29815;48.184;11.268;2022-08-19T10:15:08;95170.19;;;17.99;100.00
43878;BME280;29815;48.184;11.268;2022-08-19T10:17:41;95174.78;;;18.07;100.00
43878;BME280;29815;48.184;11.268;2022-08-19T10:20:22;95170.13;;;18.16;100.00
43878;BME280;29815;48.184;11.268;2022-08-19T10:22:52;95172.03;;;18.15;100.00
43878;BME280;29815;48.184;11.268;2022-08-19T10:25:22;95179.75;;;18.13;100.00
43878;BME280;29815;48.184;11.268;2022-08-19T10:27:52;95177.31;;;18.20;100.00
43878;BME280;29815;48.184;11.268;2022-08-19T10:30:23;95180.00;;;18.29;100.00
43878;BME280;29815;48.184;11.268;2022-08-19T10:32:52;95183.78;;;18.37;100.00
43878;BME280;29815;48.184;11.268;2022-08-19T10:35:22;95181.53;;;18.39;100.00
43878;BME280;29815;48.184;11.268;2022-08-19T10:37:56;95178.63;;;18.44;100.00
43878;BME280;29815;48.184;11.268;2022-08-19T10:40:29;95179.44;;;18.44;100.00
43878;BME280;29815;48.184;11.268;2022-08-19T10:42:58;95178.78;;;18.47;100.00
43878;BME280;29815;48.184;11.268;2022-08-19T10:45:28;95171.09;;;18.49;100.00
43878;BME280;29815;48.184;11.268;2022-08-19T10:47:57;95174.44;;;18.55;100.00
43878;BME280;29815;48.184;11.268;2022-08-19T10:50:27;95175.72;;;18.49;100.00
43878;BME280;29815;48.184;11.268;2022-08-19T10:53:16;95173.13;;;18.61;100.00
43878;BME280;29815;48.184;11.268;2022-08-19T10:55:47;95171.38;;;18.56;100.00
43878;BME280;29815;48.184;11.268;2022-08-19T10:58:34;95166.88;;;18.60;100.00
43878;BME280;29815;48.184;11.268;2022-08-19T11:01:03;95160.75;;;18.64;100.00
43878;BME280;29815;48.184;11.268;2022-08-19T11:03:33;95159.16;;;18.63;100.00
43878;BME280;29815;48.184;11.268;2022-08-19T11:06:29;95163.28;;;18.69;100.00
43878;BME280;29815;48.184;11.268;2022-08-19T11:09:02;95168.56;;;18.74;100.00
43878;BME280;29815;48.184;11.268;2022-08-19T11:11:33;95170.69;;;18.68;100.00
43878;BME280;29815;48.184;11.268;2022-08-19T11:14:13;95166.69;;;18.66;100.00
43878;BME280;29815;48.184;11.268;2022-08-19T11:16:47;95168.03;;;18.59;100.00
43878;BME280;29815;48.184;11.268;2022-08-19T11:19:17;95163.34;;;18.60;100.00
43878;BME280;29815;48.184;11.268;2022-08-19T11:21:48;95169.25;;;18.62;100.00
43878;BME280;29815;48.184;11.268;2022-08-19T11:24:24;95167.00;;;18.64;100.00
43878;BME280;29815;48.184;11.268;2022-08-19T11:27:02;95165.41;;;18.63;100.00
43878;BME280;29815;48.184;11.268;2022-08-19T11:29:33;95163.63;;;18.67;100.00
43878;BME280;29815;48.184;11.268;2022-08-19T11:32:06;95162.63;;;18.72;100.00
43878;BME280;29815;48.184;11.268;2022-08-19T11:34:38;95153.16;;;18.78;100.00
43878;BME280;29815;48.184;11.268;2022-08-19T11:37:08;95149.91;;;18.84;100.00
43878;BME280;29815;48.184;11.268;2022-08-19T11:39:38;95153.81;;;18.96;100.00
43878;BME280;29815;48.184;11.268;2022-08-19T11:42:08;95153.28;;;19.02;100.00
43878;BME280;29815;48.184;11.268;2022-08-19T11:44:56;95158.69;;;19.11;100.00
43878;BME280;29815;48.184;11.268;2022-08-19T11:47:25;95158.25;;;19.21;100.00
43878;BME280;29815;48.184;11.268;2022-08-19T11:49:55;95155.53;;;19.21;100.00
43878;BME280;29815;48.184;11.268;2022-08-19T11:52:25;95168.50;;;19.24;100.00
43878;BME280;29815;48.184;11.268;2022-08-19T11:54:56;95161.66;;;19.18;100.00
43878;BME280;29815;48.184;11.268;2022-08-19T11:57:25;95161.78;;;19.21;100.00
43878;BME280;29815;48.184;11.268;2022-08-19T11:59:55;95156.94;;;19.27;100.00
43878;BME280;29815;48.184;11.268;2022-08-19T12:02:24;95163.31;;;19.31;100.00
43878;BME280;29815;48.184;11.268;2022-08-19T12:04:54;95156.72;;;19.32;100.00
43878;BME280;29815;48.184;11.268;2022-08-19T12:07:23;95157.41;;;19.29;100.00
43878;BME280;29815;48.184;11.268;2022-08-19T12:09:54;95159.31;;;19.28;100.00
43878;BME280;29815;48.184;11.268;2022-08-19T12:12:24;95160.72;;;19.35;100.00
43878;BME280;29815;48.184;11.268;2022-08-19T12:14:54;95160.59;;;19.31;100.00
43878;BME280;29815;48.184;11.268;2022-08-19T12:17:27;95164.03;;;19.40;100.00
43878;BME280;29815;48.184;11.268;2022-08-19T12:19:56;95168.56;;;19.36;100.00
43878;BME280;29815;48.184;11.268;2022-08-19T12:22:26;95175.28;;;19.39;100.00
43878;BME280;29815;48.184;11.268;2022-08-19T12:24:57;95177.47;;;19.45;100.00
43878;BME280;29815;48.184;11.268;2022-08-19T12:27:26;95180.63;;;19.56;100.00
43878;BME280;29815;48.184;11.268;2022-08-19T12:30:11;95180.41;;;19.61;100.00
43878;BME280;29815;48.184;11.268;2022-08-19T12:32:41;95197.38;;;19.67;100.00
43878;BME280;29815;48.184;11.268;2022-08-19T12:35:10;95186.41;;;19.54;100.00
43878;BME280;29815;48.184;11.268;2022-08-19T12:37:40;95189.13;;;19.54;100.00
43878;BME280;29815;48.184;11.268;2022-08-19T12:40:25;95199.84;;;19.59;100.00
43878;BME280;29815;48.184;11.268;2022-08-19T12:42:54;95200.53;;;19.56;100.00
43878;BME280;29815;48.184;11.268;2022-08-19T12:45:24;95194.25;;;19.56;100.00
43878;BME280;29815;48.184;11.268;2022-08-19T12:47:54;95202.91;;;19.58;100.00
43878;BME280;29815;48.184;11.268;2022-08-19T12:50:23;95199.53;;;19.61;100.00
43878;BME280;29815;48.184;11.268;2022-08-19T12:52:53;95193.94;;;19.57;100.00
43878;BME280;29815;48.184;11.268;2022-08-19T12:55:24;95209.31;;;19.62;100.00
43878;BME280;29815;48.184;11.268;2022-08-19T12:57:56;95203.50;;;19.64;100.00
43878;BME280;29815;48.184;11.268;2022-08-19T13:00:25;95217.84;;;19.60;100.00
43878;BME280;29815;48.184;11.268;2022-08-19T13:02:55;95220.63;;;19.52;100.00
43878;BME280;29815;48.184;11.268;2022-08-19T13:05:28;95216.47;;;19.46;100.00
43878;BME280;29815;48.184;11.268;2022-08-19T13:08:00;95214.78;;;19.41;100.00
43878;BME280;29815;48.184;11.268;2022-08-19T13:10:34;95215.16;;;19.31;100.00